createdAt,value
2023-02-23T00:02:52.288Z,57.75
2023-02-23T00:07:56.116Z,57.85
2023-02-23T00:12:59.592Z,57.83
2023-02-23T00:18:04.672Z,58.03
2023-02-23T00:23:07.571Z,58.35
2023-02-23T00:28:10.454Z,58.51
2023-02-23T00:33:13.495Z,58.28
2023-02-23T00:38:16.373Z,58.39
2023-02-23T00:43:20.145Z,58.46
2023-02-23T00:48:22.987Z,58.75
2023-02-23T00:53:27.390Z,58.65
2023-02-23T00:58:31.510Z,58.60
2023-02-23T01:03:34.552Z,58.82
2023-02-23T01:08:44.227Z,58.60
2023-02-23T01:13:48.688Z,58.79
2023-02-23T01:18:51.725Z,58.98
2023-02-23T01:23:55.438Z,59.03
2023-02-23T01:29:02.278Z,59.14
2023-02-23T01:34:06.566Z,58.86
2023-02-23T01:39:17.571Z,58.97
2023-02-23T01:44:20.406Z,59.26
2023-02-23T01:49:29.728Z,59.44
2023-02-23T01:54:42.526Z,59.79
2023-02-23T01:59:49.133Z,60.28
2023-02-23T02:04:52.458Z,60.63
2023-02-23T02:10:13.822Z,61.13
2023-02-23T02:15:19.771Z,61.14
2023-02-23T02:21:21.031Z,61.18
2023-02-23T02:27:21.769Z,61.11
2023-02-23T02:32:55.441Z,61.35
2023-02-23T02:38:36.194Z,61.13
2023-02-23T02:44:17.901Z,61.60
2023-02-23T02:49:27.820Z,61.55
2023-02-23T02:54:44.131Z,62.14
2023-02-23T03:00:08.551Z,62.34
2023-02-23T03:05:35.497Z,62.43
2023-02-23T03:11:17.677Z,62.79
2023-02-23T03:16:48.391Z,62.88
2023-02-23T03:22:26.134Z,62.81
2023-02-23T03:27:53.679Z,62.96
2023-02-23T03:33:22.851Z,63.16
2023-02-23T03:39:16.905Z,63.72
2023-02-23T03:44:48.195Z,63.75
2023-02-23T03:50:10.078Z,63.74
2023-02-23T03:55:40.100Z,63.72
2023-02-23T04:01:08.631Z,64.36
2023-02-23T04:06:34.392Z,64.94
2023-02-23T04:12:23.075Z,65.43
2023-02-23T04:17:29.031Z,65.85
2023-02-23T04:22:31.943Z,65.86
2023-02-23T04:27:36.513Z,66.06
2023-02-23T04:32:39.566Z,65.91
2023-02-23T04:37:42.583Z,65.87
2023-02-23T04:42:45.493Z,66.06
2023-02-23T04:47:48.496Z,66.08
2023-02-23T04:52:53.331Z,66.27
2023-02-23T04:58:02.034Z,66.57
2023-02-23T05:03:05.101Z,66.55
2023-02-23T05:08:07.994Z,65.97
2023-02-23T05:13:11.075Z,65.94
2023-02-23T05:18:14.004Z,66.30
2023-02-23T05:23:16.905Z,66.75
2023-02-23T05:28:19.789Z,66.70
2023-02-23T05:33:22.654Z,67.10
2023-02-23T05:38:27.287Z,66.91
2023-02-23T05:43:30.164Z,67.06
2023-02-23T05:48:34.075Z,67.41
2023-02-23T05:53:37.102Z,67.75
2023-02-23T05:58:39.941Z,68.13
2023-02-23T06:03:43.015Z,68.14
2023-02-23T06:08:46.244Z,68.16
2023-02-23T06:13:49.758Z,68.37
2023-02-23T06:18:52.640Z,68.32
2023-02-23T06:23:55.580Z,68.50
2023-02-23T06:28:58.507Z,68.31
2023-02-23T06:34:01.388Z,68.24
2023-02-23T06:39:04.934Z,67.96
2023-02-23T06:44:07.817Z,68.02
2023-02-23T06:49:12.320Z,68.31
2023-02-23T06:54:16.241Z,68.45
2023-02-23T06:59:19.135Z,68.47
2023-02-23T07:04:22.061Z,68.28
2023-02-23T07:09:25.253Z,68.37
2023-02-23T07:14:28.349Z,68.08
2023-02-23T07:19:32.516Z,67.94
2023-02-23T07:24:35.440Z,67.81
2023-02-23T07:29:38.370Z,67.81
2023-02-23T07:34:41.286Z,67.57
2023-02-23T07:39:44.334Z,67.94
2023-02-23T07:44:47.327Z,67.98
2023-02-23T07:49:50.251Z,67.95
2023-02-23T07:54:53.273Z,67.86
2023-02-23T07:59:56.241Z,67.51
2023-02-23T08:05:00.154Z,67.54
2023-02-23T08:10:03.855Z,68.00
2023-02-23T08:15:08.387Z,67.86
2023-02-23T08:20:11.687Z,68.19
2023-02-23T08:25:14.644Z,68.69
2023-02-23T08:30:19.969Z,68.29
2023-02-23T08:35:23.004Z,67.96
2023-02-23T08:40:26.262Z,68.26
2023-02-23T08:45:29.466Z,67.44
2023-02-23T08:50:32.486Z,67.14
2023-02-23T08:55:35.722Z,67.43
2023-02-23T09:00:38.889Z,67.55
2023-02-23T09:05:41.808Z,67.49
2023-02-23T09:10:45.164Z,67.01
2023-02-23T09:15:48.242Z,66.78
2023-02-23T09:20:51.289Z,66.43
2023-02-23T09:25:54.156Z,65.85
2023-02-23T09:30:57.761Z,66.02
2023-02-23T09:36:00.855Z,66.09
2023-02-23T09:41:07.188Z,65.02
2023-02-23T09:46:34.063Z,64.92
2023-02-23T09:51:42.181Z,65.29
2023-02-23T09:56:49.895Z,64.76
2023-02-23T10:02:05.566Z,64.21
2023-02-23T10:07:21.568Z,64.28
2023-02-23T10:12:50.364Z,64.32
2023-02-23T10:18:46.542Z,63.27
2023-02-23T10:24:04.036Z,63.16
2023-02-23T10:29:21.171Z,62.95
2023-02-23T10:34:26.887Z,63.28
2023-02-23T10:39:32.563Z,63.21
2023-02-23T10:44:35.539Z,62.74
2023-02-23T10:49:46.958Z,62.14
2023-02-23T10:54:51.870Z,61.78
2023-02-23T11:00:33.050Z,61.86
2023-02-23T11:05:53.011Z,62.50
2023-02-23T11:11:01.287Z,61.80
2023-02-23T11:16:13.483Z,61.53
2023-02-23T11:21:33.840Z,61.49
2023-02-23T11:26:43.514Z,61.38
2023-02-23T11:31:58.810Z,61.64
2023-02-23T11:37:31.203Z,61.86
2023-02-23T11:42:34.142Z,61.72
2023-02-23T11:47:44.674Z,61.41
2023-02-23T11:53:02.813Z,61.62
2023-02-23T11:58:32.337Z,61.15
2023-02-23T12:03:36.471Z,61.07
2023-02-23T12:08:49.094Z,60.90
2023-02-23T12:14:12.553Z,61.79
2023-02-23T12:19:35.625Z,61.09
2023-02-23T12:24:44.355Z,60.74
2023-02-23T12:30:18.392Z,61.14
2023-02-23T12:35:31.112Z,61.26
2023-02-23T12:40:39.027Z,61.52
2023-02-23T12:46:23.158Z,60.87
2023-02-23T12:51:51.701Z,60.97
2023-02-23T12:57:11.319Z,60.17
2023-02-23T13:02:38.963Z,60.58
2023-02-23T13:08:14.755Z,61.58
2023-02-23T13:13:50.573Z,61.20
2023-02-23T13:19:05.951Z,61.40
2023-02-23T13:24:19.463Z,60.92
2023-02-23T13:29:36.313Z,61.24
2023-02-23T13:34:52.713Z,61.71
2023-02-23T13:40:01.537Z,62.02
2023-02-23T13:45:25.596Z,61.95
2023-02-23T13:50:46.659Z,62.35
2023-02-23T13:55:51.819Z,62.70
2023-02-23T14:01:39.596Z,62.74
2023-02-23T14:07:03.964Z,63.26
2023-02-23T14:12:40.297Z,62.74
2023-02-23T14:17:44.282Z,63.08
2023-02-23T14:23:21.039Z,62.54
2023-02-23T14:28:33.848Z,62.49
2023-02-23T14:33:42.761Z,63.07
2023-02-23T14:38:48.220Z,63.73
2023-02-23T14:44:12.267Z,63.46
2023-02-23T14:49:22.690Z,63.50
2023-02-23T14:54:40.746Z,63.51
2023-02-23T14:59:44.362Z,64.10
2023-02-23T15:04:47.465Z,64.83
2023-02-23T15:09:56.204Z,64.55
2023-02-23T15:15:02.451Z,64.71
2023-02-23T15:20:16.622Z,65.23
2023-02-23T15:25:39.673Z,65.52
2023-02-23T15:30:48.710Z,65.84
2023-02-23T15:36:13.617Z,65.86
2023-02-23T15:41:33.147Z,65.70
2023-02-23T15:46:37.884Z,65.60
2023-02-23T15:51:48.784Z,65.80
2023-02-23T15:56:58.743Z,66.02
2023-02-23T16:02:03.861Z,66.14
2023-02-23T16:07:28.179Z,66.21
2023-02-23T16:12:36.373Z,66.28
2023-02-23T16:17:46.505Z,66.72
2023-02-23T16:22:53.624Z,67.01
2023-02-23T16:28:03.375Z,67.27
2023-02-23T16:33:12.220Z,67.43
2023-02-23T16:38:35.945Z,67.74
2023-02-23T16:43:38.840Z,67.95
2023-02-23T16:48:41.763Z,68.28
2023-02-23T16:53:45.070Z,68.17
2023-02-23T16:59:01.067Z,68.16
2023-02-23T17:04:03.977Z,68.26
2023-02-23T17:09:06.874Z,68.35
2023-02-23T17:14:21.910Z,68.57
2023-02-23T17:19:26.014Z,68.77
2023-02-23T17:24:29.156Z,69.00
2023-02-23T17:29:32.232Z,69.10
2023-02-23T17:34:35.941Z,68.93
2023-02-23T17:39:41.009Z,68.81
2023-02-23T17:44:44.284Z,68.82
2023-02-23T17:49:47.524Z,68.92
2023-02-23T17:54:50.537Z,68.84
2023-02-23T17:59:53.572Z,68.90
2023-02-23T18:04:56.441Z,68.90
2023-02-23T18:09:59.332Z,68.77
2023-02-23T18:15:02.298Z,68.70
2023-02-23T18:20:06.813Z,68.65
2023-02-23T18:25:25.584Z,68.73
2023-02-23T18:30:28.477Z,68.90
2023-02-23T18:35:41.693Z,69.00
2023-02-23T18:40:45.320Z,69.33
2023-02-23T18:45:48.177Z,69.69
2023-02-23T18:50:56.737Z,69.55
2023-02-23T18:56:05.922Z,69.15
2023-02-23T19:01:21.239Z,69.15
2023-02-23T19:06:25.185Z,69.03
2023-02-23T19:11:32.153Z,69.22
2023-02-23T19:16:35.478Z,69.35
2023-02-23T19:21:38.975Z,69.45
2023-02-23T19:26:41.964Z,69.35
2023-02-23T19:31:45.086Z,69.36
2023-02-23T19:36:48.320Z,69.46
2023-02-23T19:41:51.202Z,69.51
2023-02-23T19:46:54.099Z,69.61
2023-02-23T19:51:57.880Z,69.73
2023-02-23T19:57:00.791Z,69.62
2023-02-23T20:02:03.704Z,69.55
2023-02-23T20:07:07.598Z,69.41
2023-02-23T20:12:10.646Z,69.41
2023-02-23T20:17:13.879Z,69.43
2023-02-23T20:22:16.796Z,69.59
2023-02-23T20:27:22.670Z,69.66
2023-02-23T20:32:26.084Z,69.67
2023-02-23T20:37:29.043Z,69.67
2023-02-23T20:42:31.981Z,69.78
2023-02-23T20:47:35.222Z,69.79
2023-02-23T20:52:38.714Z,69.86
2023-02-23T20:57:41.812Z,69.77
2023-02-23T21:02:44.702Z,69.74
2023-02-23T21:07:49.380Z,69.71
2023-02-23T21:12:53.079Z,69.84
2023-02-23T21:17:57.709Z,69.83
2023-02-23T21:23:00.767Z,69.91
2023-02-23T21:28:03.663Z,69.69
2023-02-23T21:33:06.674Z,69.64
2023-02-23T21:38:10.517Z,69.52
2023-02-23T21:43:13.395Z,69.23
2023-02-23T21:48:16.247Z,69.33
2023-02-23T21:53:19.101Z,69.54
2023-02-23T21:58:23.102Z,69.59
2023-02-23T22:03:27.371Z,69.44
2023-02-23T22:08:30.269Z,69.34
2023-02-23T22:13:33.193Z,69.23
2023-02-23T22:18:36.131Z,69.35
2023-02-23T22:23:41.622Z,69.49
2023-02-23T22:28:45.005Z,69.51
2023-02-23T22:33:47.940Z,69.37
2023-02-23T22:38:51.038Z,69.18
2023-02-23T22:43:53.899Z,69.39
2023-02-23T22:48:56.753Z,69.61
2023-02-23T22:53:59.642Z,69.59
2023-02-23T22:59:08.686Z,69.49
2023-02-23T23:04:11.603Z,69.51
2023-02-23T23:09:16.556Z,69.64
2023-02-23T23:14:19.684Z,69.61
2023-02-23T23:19:25.862Z,69.64
2023-02-23T23:24:29.403Z,69.66
2023-02-23T23:29:32.638Z,69.75
2023-02-23T23:34:35.673Z,69.56
2023-02-23T23:39:38.529Z,69.79
2023-02-23T23:44:41.549Z,69.82
2023-02-23T23:49:45.389Z,69.91
2023-02-23T23:54:48.281Z,70.01
2023-02-23T23:59:51.364Z,70.00
